createdAt,value
2022-11-18T00:01:14.796Z,99705.66
2022-11-18T00:03:42.808Z,99701.59
2022-11-18T00:06:15.213Z,99693.59
2022-11-18T00:08:41.991Z,99694.38
2022-11-18T00:11:11.087Z,99696.78
2022-11-18T00:13:56.602Z,99689.97
2022-11-18T00:16:23.499Z,99707.81
2022-11-18T00:18:50.536Z,99700.53
2022-11-18T00:21:17.115Z,99689.69
2022-11-18T00:23:43.633Z,99691.16
2022-11-18T00:26:13.434Z,99693.00
2022-11-18T00:28:40.834Z,99695.97
2022-11-18T00:31:12.878Z,99693.44
2022-11-18T00:33:39.693Z,99708.06
2022-11-18T00:36:09.319Z,99698.03
2022-11-18T00:38:35.827Z,99695.28
2022-11-18T00:41:10.251Z,99696.50
2022-11-18T00:43:37.570Z,99694.66
2022-11-18T00:46:05.178Z,99697.03
2022-11-18T00:48:31.606Z,99700.16
2022-11-18T00:51:06.435Z,99699.44
2022-11-18T00:53:32.831Z,99699.66
2022-11-18T00:55:59.236Z,99690.44
2022-11-18T00:58:25.742Z,99696.47
2022-11-18T01:00:52.898Z,99687.78
2022-11-18T01:03:20.741Z,99692.44
2022-11-18T01:05:47.484Z,99693.22
2022-11-18T01:08:14.795Z,99692.66
2022-11-18T01:10:41.503Z,99713.84
2022-11-18T01:13:22.966Z,99694.31
2022-11-18T01:15:54.830Z,99709.28
2022-11-18T01:18:26.767Z,99707.63
2022-11-18T01:20:53.575Z,99715.16
2022-11-18T01:23:21.081Z,99708.06
2022-11-18T01:25:49.153Z,99716.53
2022-11-18T01:28:23.042Z,99720.22
2022-11-18T01:30:50.336Z,99711.53
2022-11-18T01:33:16.803Z,99706.38
2022-11-18T01:35:44.565Z,99703.63
2022-11-18T01:38:13.477Z,99705.97
2022-11-18T01:40:40.372Z,99719.91
2022-11-18T01:43:13.850Z,99719.94
2022-11-18T01:45:42.351Z,99718.66
2022-11-18T01:48:20.655Z,99720.16
2022-11-18T01:50:54.329Z,99718.88
2022-11-18T01:53:28.841Z,99724.63
2022-11-18T01:55:57.907Z,99716.34
2022-11-18T01:58:42.314Z,99723.16
2022-11-18T02:01:09.319Z,99716.28
2022-11-18T02:03:36.605Z,99721.94
2022-11-18T02:09:53.041Z,99718.31
2022-11-18T02:12:20.654Z,99717.31
2022-11-18T02:14:47.957Z,99724.00
2022-11-18T02:17:33.178Z,99718.41
2022-11-18T02:20:15.505Z,99725.75
2022-11-18T02:23:00.760Z,99729.59
2022-11-18T02:26:04.863Z,99721.94
2022-11-18T02:28:50.218Z,99723.44
2022-11-18T02:31:25.627Z,99734.03
2022-11-18T02:34:03.701Z,99724.66
2022-11-18T02:36:55.166Z,99730.34
2022-11-18T02:39:36.539Z,99731.22
2022-11-18T02:42:07.951Z,99734.78
2022-11-18T02:44:38.291Z,99742.53
2022-11-18T02:47:08.086Z,99738.88
2022-11-18T02:49:43.265Z,99736.44
2022-11-18T02:52:11.871Z,99738.66
2022-11-18T02:54:41.819Z,99729.94
2022-11-18T02:57:09.112Z,99737.91
2022-11-18T02:59:35.625Z,99725.69
2022-11-18T03:02:02.132Z,99729.66
2022-11-18T03:04:29.409Z,99726.66
2022-11-18T03:07:11.130Z,99728.56
2022-11-18T03:09:40.756Z,99720.03
2022-11-18T03:12:24.203Z,99724.75
2022-11-18T03:15:05.915Z,99718.25
2022-11-18T03:17:35.028Z,99718.44
2022-11-18T03:20:10.472Z,99726.75
2022-11-18T03:22:47.067Z,99723.28
2022-11-18T03:25:28.864Z,99731.44
2022-11-18T03:28:14.751Z,99733.84
2022-11-18T03:30:59.084Z,99742.88
2022-11-18T03:33:33.015Z,99741.41
2022-11-18T03:36:04.083Z,99750.66
2022-11-18T03:38:36.575Z,99745.28
2022-11-18T03:41:06.501Z,99746.13
2022-11-18T03:43:39.280Z,99751.31
2022-11-18T03:46:16.908Z,99754.69
2022-11-18T03:48:52.963Z,99746.16
2022-11-18T03:51:26.277Z,99755.91
2022-11-18T03:54:01.047Z,99746.88
2022-11-18T03:56:34.919Z,99762.25
2022-11-18T03:59:10.392Z,99764.34
2022-11-18T04:01:45.890Z,99767.28
2022-11-18T04:04:13.382Z,99766.53
2022-11-18T04:06:47.175Z,99770.34
2022-11-18T04:09:37.712Z,99773.59
2022-11-18T04:12:18.669Z,99764.75
2022-11-18T04:14:47.942Z,99770.75
2022-11-18T04:17:19.738Z,99775.19
2022-11-18T04:19:46.182Z,99778.13
2022-11-18T04:22:12.865Z,99783.50
2022-11-18T04:24:39.845Z,99778.00
2022-11-18T04:27:07.145Z,99773.16
2022-11-18T04:29:34.202Z,99778.84
2022-11-18T04:32:01.826Z,99787.28
2022-11-18T04:34:28.622Z,99798.84
2022-11-18T04:36:55.091Z,99792.59
2022-11-18T04:39:21.512Z,99798.00
2022-11-18T04:41:56.715Z,99801.38
2022-11-18T04:44:30.116Z,99801.88
2022-11-18T04:46:58.027Z,99802.47
2022-11-18T04:49:25.915Z,99807.13
2022-11-18T04:51:52.775Z,99819.44
2022-11-18T04:54:20.023Z,99814.81
2022-11-18T04:56:49.714Z,99822.84
2022-11-18T04:59:19.654Z,99815.69
2022-11-18T05:01:46.509Z,99824.28
2022-11-18T05:04:19.840Z,99817.31
2022-11-18T05:06:46.536Z,99816.63
2022-11-18T05:09:13.250Z,99818.09
2022-11-18T05:11:58.365Z,99816.75
2022-11-18T05:14:30.894Z,99818.06
2022-11-18T05:16:59.331Z,99820.50
2022-11-18T05:19:25.944Z,99820.22
2022-11-18T05:21:53.199Z,99823.84
2022-11-18T05:24:19.986Z,99822.81
2022-11-18T05:26:46.814Z,99826.69
2022-11-18T05:29:13.538Z,99831.84
2022-11-18T05:31:39.935Z,99836.81
2022-11-18T05:34:06.386Z,99836.56
2022-11-18T05:36:32.833Z,99833.88
2022-11-18T05:38:59.965Z,99836.38
2022-11-18T05:41:44.848Z,99845.97
2022-11-18T05:44:11.314Z,99851.13
2022-11-18T05:46:37.785Z,99848.50
2022-11-18T05:49:04.245Z,99858.75
2022-11-18T05:51:30.708Z,99858.09
2022-11-18T05:53:57.636Z,99863.56
2022-11-18T05:56:38.422Z,99865.69
2022-11-18T05:59:05.391Z,99868.91
2022-11-18T06:01:42.009Z,99877.69
2022-11-18T06:04:15.048Z,99871.28
2022-11-18T06:06:43.052Z,99880.59
2022-11-18T06:09:10.628Z,99874.63
2022-11-18T06:11:43.249Z,99875.91
2022-11-18T06:14:16.285Z,99890.03
2022-11-18T06:16:49.160Z,99894.00
2022-11-18T06:19:16.904Z,99888.28
2022-11-18T06:21:45.070Z,99891.09
2022-11-18T06:24:12.454Z,99897.50
2022-11-18T06:26:39.510Z,99901.69
2022-11-18T06:29:08.346Z,99905.09
2022-11-18T06:31:34.806Z,99902.66
2022-11-18T06:34:01.456Z,99908.16
2022-11-18T06:36:27.854Z,99910.13
2022-11-18T06:38:54.333Z,99906.59
2022-11-18T06:41:20.781Z,99909.28
2022-11-18T06:43:47.243Z,99907.53
2022-11-18T06:46:34.538Z,99914.34
2022-11-18T06:49:01.587Z,99916.69
2022-11-18T06:51:28.903Z,99926.53
2022-11-18T06:53:55.457Z,99932.72
2022-11-18T06:56:23.088Z,99930.84
2022-11-18T06:58:54.789Z,99929.88
2022-11-18T07:01:23.741Z,99944.22
2022-11-18T07:03:50.766Z,99944.13
2022-11-18T07:06:21.202Z,99941.94
2022-11-18T07:08:47.857Z,99955.44
2022-11-18T07:11:17.145Z,99951.22
2022-11-18T07:13:44.196Z,99951.53
2022-11-18T07:16:19.527Z,99954.72
2022-11-18T07:18:47.449Z,99960.25
2022-11-18T07:21:16.499Z,99960.44
2022-11-18T07:23:43.226Z,99962.31
2022-11-18T07:26:10.324Z,99964.38
2022-11-18T07:28:37.109Z,99967.47
2022-11-18T07:31:12.294Z,99961.06
2022-11-18T07:33:40.218Z,99969.16
2022-11-18T07:36:12.516Z,99960.03
2022-11-18T07:38:39.377Z,99972.81
2022-11-18T07:41:13.774Z,99967.84
2022-11-18T07:43:40.652Z,99975.16
2022-11-18T07:46:16.862Z,99977.97
2022-11-18T07:48:45.337Z,99975.63
2022-11-18T07:51:12.551Z,99978.16
2022-11-18T07:53:39.133Z,99975.06
2022-11-18T07:56:08.107Z,99984.91
2022-11-18T07:58:35.656Z,99992.59
2022-11-18T08:01:18.986Z,99990.44
2022-11-18T08:03:46.437Z,99995.03
2022-11-18T08:06:16.439Z,99994.94
2022-11-18T08:08:43.469Z,100001.88
2022-11-18T08:11:16.292Z,99995.69
2022-11-18T08:13:46.994Z,99995.50
2022-11-18T08:16:18.777Z,99999.91
2022-11-18T08:18:45.565Z,99990.53
2022-11-18T08:21:12.965Z,99997.19
2022-11-18T08:23:42.289Z,100006.75
2022-11-18T08:26:16.101Z,100000.00
2022-11-18T08:28:43.498Z,100008.53
2022-11-18T08:31:10.906Z,100004.03
2022-11-18T08:33:37.993Z,100000.00
2022-11-18T08:36:18.393Z,100008.19
2022-11-18T08:38:44.933Z,100020.47
2022-11-18T08:41:14.275Z,100024.41
2022-11-18T08:43:40.706Z,100026.09
2022-11-18T08:46:07.226Z,100022.03
2022-11-18T08:48:33.790Z,100029.44
2022-11-18T08:51:01.015Z,100035.09
2022-11-18T08:53:27.506Z,100036.41
2022-11-18T08:55:57.855Z,100050.53
2022-11-18T08:58:25.213Z,100046.22
2022-11-18T09:00:51.749Z,100046.50
2022-11-18T09:03:18.737Z,100049.06
2022-11-18T09:05:45.749Z,100043.97
2022-11-18T09:08:12.277Z,100053.19
2022-11-18T09:10:39.041Z,100058.91
2022-11-18T09:13:25.207Z,100056.56
2022-11-18T09:15:51.985Z,100069.13
2022-11-18T09:18:18.464Z,100083.22
2022-11-18T09:20:56.922Z,100100.09
2022-11-18T09:23:23.735Z,100092.63
2022-11-18T09:26:00.168Z,100095.84
2022-11-18T09:28:26.961Z,100094.28
2022-11-18T09:30:53.371Z,100099.16
2022-11-18T09:33:20.732Z,100108.94
2022-11-18T09:35:47.556Z,100115.31
2022-11-18T09:38:14.049Z,100122.38
2022-11-18T09:41:10.392Z,100100.59
2022-11-18T09:43:50.064Z,100109.84
2022-11-18T09:46:27.618Z,100114.06
2022-11-18T09:49:12.699Z,100114.94
2022-11-18T09:51:45.137Z,100117.81
2022-11-18T09:54:17.937Z,100119.63
2022-11-18T09:56:44.517Z,100124.91
2022-11-18T09:59:14.273Z,100134.56
2022-11-18T10:01:42.726Z,100134.88
2022-11-18T10:04:15.576Z,100133.16
2022-11-18T10:06:42.542Z,100136.19
2022-11-18T10:09:30.452Z,100140.13
2022-11-18T10:12:08.490Z,100151.09
2022-11-18T10:15:02.607Z,100148.53
2022-11-18T10:17:41.239Z,100145.84
2022-11-18T10:20:22.779Z,100147.72
2022-11-18T10:22:54.496Z,100153.31
2022-11-18T10:25:21.164Z,100148.94
2022-11-18T10:27:49.523Z,100146.06
2022-11-18T10:30:21.564Z,100141.44
2022-11-18T10:33:17.559Z,100156.56
2022-11-18T10:35:44.032Z,100157.31
2022-11-18T10:38:13.436Z,100155.81
2022-11-18T10:41:00.505Z,100156.59
2022-11-18T10:43:50.337Z,100163.69
2022-11-18T10:46:28.584Z,100160.19
2022-11-18T10:49:12.621Z,100157.75
2022-11-18T10:52:14.932Z,100166.03
2022-11-18T10:54:42.336Z,100167.91
2022-11-18T10:57:23.866Z,100172.41
2022-11-18T10:59:57.247Z,100170.19
2022-11-18T11:02:32.825Z,100168.56
2022-11-18T11:05:02.777Z,100173.25
2022-11-18T11:07:32.693Z,100177.56
2022-11-18T11:10:23.427Z,100179.66
2022-11-18T11:12:59.227Z,100200.34
2022-11-18T11:15:48.308Z,100195.53
2022-11-18T11:18:39.412Z,100187.22
2022-11-18T11:21:13.934Z,100177.84
2022-11-18T11:23:41.588Z,100185.72
2022-11-18T11:29:10.501Z,100187.78
2022-11-18T11:31:46.200Z,100185.81
2022-11-18T11:34:43.064Z,100193.28
2022-11-18T11:37:09.429Z,100189.63
2022-11-18T11:40:11.306Z,100187.56
2022-11-18T11:42:43.671Z,100187.28
2022-11-18T11:45:28.703Z,100183.88
2022-11-18T11:48:03.123Z,100196.31
2022-11-18T11:51:03.454Z,100196.31
2022-11-18T11:54:04.833Z,100188.94
2022-11-18T11:56:33.939Z,100200.97
2022-11-18T11:59:18.617Z,100193.59
2022-11-18T12:02:09.653Z,100202.91
2022-11-18T12:04:42.475Z,100192.88
2022-11-18T12:07:17.194Z,100191.13
2022-11-18T12:10:06.712Z,100205.06
2022-11-18T12:12:50.211Z,100209.66
2022-11-18T12:15:26.025Z,100209.91
2022-11-18T12:18:04.233Z,100225.09
2022-11-18T12:20:44.869Z,100222.78
2022-11-18T12:23:17.785Z,100226.63
2022-11-18T12:25:52.968Z,100232.63
2022-11-18T12:28:24.852Z,100224.28
2022-11-18T12:31:18.025Z,100236.84
2022-11-18T12:34:02.107Z,100236.28
2022-11-18T12:36:34.235Z,100235.19
2022-11-18T12:39:25.601Z,100231.81
2022-11-18T12:42:11.823Z,100241.44
2022-11-18T12:44:39.446Z,100244.22
2022-11-18T12:47:10.678Z,100244.47
2022-11-18T12:49:37.033Z,100237.97
2022-11-18T12:52:29.074Z,100247.63
2022-11-18T12:55:02.847Z,100242.88
2022-11-18T12:57:32.647Z,100245.63
2022-11-18T13:00:14.861Z,100253.38
2022-11-18T13:02:54.690Z,100251.66
2022-11-18T13:05:23.413Z,100268.78
2022-11-18T13:08:12.332Z,100260.50
2022-11-18T13:11:37.080Z,100261.50
2022-11-18T13:14:26.297Z,100258.66
2022-11-18T13:17:11.351Z,100271.69
2022-11-18T13:19:37.834Z,100260.66
2022-11-18T13:22:22.611Z,100269.75
2022-11-18T13:24:52.119Z,100279.72
2022-11-18T13:27:30.500Z,100267.75
2022-11-18T13:30:10.026Z,100274.41
2022-11-18T13:32:36.585Z,100277.44
2022-11-18T13:35:13.598Z,100283.31
2022-11-18T13:37:59.144Z,100286.75
2022-11-18T13:40:29.574Z,100283.84
2022-11-18T13:42:56.210Z,100280.69
2022-11-18T13:45:28.160Z,100273.69
2022-11-18T13:48:05.667Z,100278.19
2022-11-18T13:50:51.159Z,100287.50
2022-11-18T13:53:26.382Z,100286.16
2022-11-18T13:56:06.014Z,100274.94
2022-11-18T13:59:02.652Z,100277.84
2022-11-18T14:01:28.672Z,100282.75
2022-11-18T14:04:02.162Z,100287.41
2022-11-18T14:06:31.921Z,100289.19
2022-11-18T14:09:06.069Z,100293.94
2022-11-18T14:11:42.075Z,100297.53
2022-11-18T14:14:27.024Z,100300.56
2022-11-18T14:16:53.710Z,100297.66
2022-11-18T14:19:32.315Z,100298.16
2022-11-18T14:22:13.174Z,100304.75
2022-11-18T14:24:40.754Z,100308.94
2022-11-18T14:27:28.624Z,100304.47
2022-11-18T14:29:55.609Z,100316.22
2022-11-18T14:32:23.364Z,100323.53
2022-11-18T14:35:00.014Z,100322.09
2022-11-18T14:37:27.119Z,100324.47
2022-11-18T14:39:57.948Z,100332.50
2022-11-18T14:42:25.019Z,100331.31
2022-11-18T14:44:51.448Z,100338.72
2022-11-18T14:47:30.267Z,100337.78
2022-11-18T14:49:56.663Z,100345.72
2022-11-18T14:52:23.087Z,100341.06
2022-11-18T14:54:49.546Z,100340.81
2022-11-18T14:57:17.554Z,100339.81
2022-11-18T14:59:44.036Z,100349.81
2022-11-18T15:02:16.585Z,100349.03
2022-11-18T15:04:43.538Z,100352.16
2022-11-18T15:07:18.522Z,100354.88
2022-11-18T15:09:49.515Z,100358.25
2022-11-18T15:12:15.921Z,100367.94
2022-11-18T15:14:42.318Z,100358.44
2022-11-18T15:17:11.956Z,100368.59
2022-11-18T15:19:38.412Z,100376.94
2022-11-18T15:22:04.815Z,100383.50
2022-11-18T15:24:31.561Z,100382.00
2022-11-18T15:26:57.953Z,100382.41
2022-11-18T15:29:25.353Z,100382.84
2022-11-18T15:31:52.213Z,100375.88
2022-11-18T15:34:20.427Z,100389.78
2022-11-18T15:36:47.749Z,100387.59
2022-11-18T15:39:14.178Z,100388.66
2022-11-18T15:41:42.892Z,100390.97
2022-11-18T15:44:10.610Z,100398.84
2022-11-18T15:46:37.035Z,100394.69
2022-11-18T15:49:04.356Z,100402.84
2022-11-18T15:51:31.542Z,100404.88
2022-11-18T15:53:58.478Z,100415.81
2022-11-18T15:56:30.363Z,100408.09
2022-11-18T15:59:06.775Z,100410.19
2022-11-18T16:01:35.656Z,100410.78
2022-11-18T16:04:03.029Z,100417.31
2022-11-18T16:06:30.009Z,100413.34
2022-11-18T16:09:00.037Z,100419.22
2022-11-18T16:11:46.340Z,100421.06
2022-11-18T16:14:14.217Z,100421.69
2022-11-18T16:16:42.102Z,100424.00
2022-11-18T16:19:11.135Z,100422.84
2022-11-18T16:21:43.481Z,100431.19
2022-11-18T16:24:18.930Z,100434.38
2022-11-18T16:26:45.634Z,100436.75
2022-11-18T16:29:12.874Z,100443.31
2022-11-18T16:31:43.639Z,100441.47
2022-11-18T16:34:23.927Z,100436.31
2022-11-18T16:36:52.737Z,100443.53
2022-11-18T16:39:25.798Z,100458.50
2022-11-18T16:42:07.281Z,100455.44
2022-11-18T16:44:35.060Z,100460.38
2022-11-18T16:47:01.717Z,100458.34
2022-11-18T16:49:28.350Z,100456.38
2022-11-18T16:51:56.572Z,100461.91
2022-11-18T16:54:24.608Z,100460.44
2022-11-18T16:56:52.523Z,100464.84
2022-11-18T16:59:24.063Z,100466.69
2022-11-18T17:01:52.288Z,100475.25
2022-11-18T17:04:19.740Z,100475.25
2022-11-18T17:06:46.568Z,100473.16
2022-11-18T17:09:18.731Z,100481.56
2022-11-18T17:11:45.493Z,100477.03
2022-11-18T17:14:12.407Z,100480.81
2022-11-18T17:16:39.071Z,100487.44
2022-11-18T17:19:11.633Z,100483.13
2022-11-18T17:21:38.812Z,100486.13
2022-11-18T17:24:05.841Z,100484.50
2022-11-18T17:26:32.290Z,100484.50
2022-11-18T17:28:58.737Z,100484.88
2022-11-18T17:31:25.990Z,100480.56
2022-11-18T17:33:55.176Z,100488.50
2022-11-18T17:36:24.061Z,100489.91
2022-11-18T17:38:52.608Z,100494.19
2022-11-18T17:41:39.887Z,100499.19
2022-11-18T17:44:08.688Z,100503.78
2022-11-18T17:46:38.284Z,100498.25
2022-11-18T17:49:13.749Z,100500.09
2022-11-18T17:51:40.661Z,100497.84
2022-11-18T17:54:07.887Z,100503.84
2022-11-18T17:56:34.537Z,100510.63
2022-11-18T17:59:01.166Z,100501.63
2022-11-18T18:01:27.800Z,100508.25
2022-11-18T18:03:54.332Z,100512.25
2022-11-18T18:06:21.446Z,100509.09
2022-11-18T18:08:47.836Z,100516.22
2022-11-18T18:11:19.133Z,100514.91
2022-11-18T18:14:04.112Z,100516.78
2022-11-18T18:16:32.348Z,100510.72
2022-11-18T18:18:59.927Z,100512.25
2022-11-18T18:21:27.179Z,100525.06
2022-11-18T18:23:54.085Z,100524.72
2022-11-18T18:26:20.580Z,100526.25
2022-11-18T18:28:47.863Z,100530.50
2022-11-18T18:31:16.325Z,100533.72
2022-11-18T18:33:43.199Z,100533.28
2022-11-18T18:36:12.657Z,100540.25
2022-11-18T18:38:40.375Z,100540.34
2022-11-18T18:41:09.704Z,100544.66
2022-11-18T18:43:36.220Z,100542.19
2022-11-18T18:46:23.267Z,100555.16
2022-11-18T18:48:49.752Z,100547.59
2022-11-18T18:51:17.098Z,100547.91
2022-11-18T18:53:43.953Z,100551.16
2022-11-18T18:56:10.626Z,100540.66
2022-11-18T18:58:37.430Z,100550.97
2022-11-18T19:01:11.260Z,100552.84
2022-11-18T19:03:38.158Z,100553.22
2022-11-18T19:06:41.915Z,100551.59
2022-11-18T19:09:01.141Z,100553.13
2022-11-18T19:11:46.656Z,100543.81
2022-11-18T19:14:16.249Z,100562.72
2022-11-18T19:16:43.010Z,100559.13
2022-11-18T19:19:13.771Z,100557.13
2022-11-18T19:21:40.308Z,100561.88
2022-11-18T19:24:23.155Z,100572.41
2022-11-18T19:26:55.306Z,100566.63
2022-11-18T19:29:25.585Z,100572.72
2022-11-18T19:31:52.327Z,100569.94
2022-11-18T19:34:19.053Z,100580.03
2022-11-18T19:36:45.722Z,100581.88
2022-11-18T19:39:12.286Z,100583.66
2022-11-18T19:41:38.690Z,100581.13
2022-11-18T19:44:05.831Z,100586.38
2022-11-18T19:46:32.307Z,100585.59
2022-11-18T19:48:59.045Z,100587.78
2022-11-18T19:51:25.852Z,100590.00
2022-11-18T19:53:57.014Z,100592.88
2022-11-18T19:56:26.113Z,100593.56
2022-11-18T19:58:54.782Z,100594.41
2022-11-18T20:01:27.480Z,100599.59
2022-11-18T20:03:57.628Z,100607.72
2022-11-18T20:06:25.951Z,100611.97
2022-11-18T20:08:53.663Z,100609.41
2022-11-18T20:11:21.470Z,100608.66
2022-11-18T20:13:48.213Z,100614.81
2022-11-18T20:16:17.794Z,100607.78
2022-11-18T20:18:47.493Z,100610.41
2022-11-18T20:21:19.824Z,100615.75
2022-11-18T20:23:51.794Z,100614.06
2022-11-18T20:26:20.554Z,100612.28
2022-11-18T20:28:52.971Z,100612.69
2022-11-18T20:31:23.131Z,100626.53
2022-11-18T20:33:51.755Z,100622.28
2022-11-18T20:36:23.992Z,100614.38
2022-11-18T20:38:55.907Z,100624.81
2022-11-18T20:41:23.500Z,100622.16
2022-11-18T20:43:50.198Z,100628.38
2022-11-18T20:46:20.749Z,100639.81
2022-11-18T20:48:48.750Z,100644.97
2022-11-18T20:51:23.470Z,100638.81
2022-11-18T20:53:51.090Z,100646.75
2022-11-18T20:56:19.811Z,100637.25
2022-11-18T20:58:46.282Z,100651.41
2022-11-18T21:01:15.792Z,100639.28
2022-11-18T21:03:47.337Z,100636.66
2022-11-18T21:06:14.691Z,100643.44
2022-11-18T21:08:42.643Z,100638.75
2022-11-18T21:11:12.565Z,100648.56
2022-11-18T21:13:58.161Z,100653.91
2022-11-18T21:16:25.963Z,100661.06
2022-11-18T21:18:52.473Z,100662.00
2022-11-18T21:21:37.845Z,100668.34
2022-11-18T21:24:04.547Z,100669.31
2022-11-18T21:26:32.604Z,100665.47
2022-11-18T21:29:01.255Z,100673.56
2022-11-18T21:31:29.181Z,100675.91
2022-11-18T21:33:56.941Z,100669.94
2022-11-18T21:36:25.284Z,100669.88
2022-11-18T21:38:52.164Z,100671.78
2022-11-18T21:41:19.125Z,100675.25
2022-11-18T21:46:34.780Z,100681.44
2022-11-18T21:49:02.035Z,100683.84
2022-11-18T21:51:28.564Z,100682.44
2022-11-18T21:53:55.147Z,100686.53
2022-11-18T21:56:25.070Z,100683.00
2022-11-18T21:58:52.590Z,100686.78
2022-11-18T22:01:24.525Z,100676.75
2022-11-18T22:03:56.031Z,100678.44
2022-11-18T22:06:24.453Z,100679.66
2022-11-18T22:08:52.004Z,100678.81
2022-11-18T22:11:20.334Z,100674.50
2022-11-18T22:13:47.031Z,100683.47
2022-11-18T22:16:16.280Z,100681.00
2022-11-18T22:18:45.064Z,100677.84
2022-11-18T22:21:20.370Z,100680.38
2022-11-18T22:23:47.589Z,100677.59
2022-11-18T22:26:21.411Z,100674.50
2022-11-18T22:28:53.473Z,100675.06
2022-11-18T22:31:21.467Z,100678.81
2022-11-18T22:33:49.640Z,100686.69
2022-11-18T22:36:17.786Z,100687.41
2022-11-18T22:38:45.136Z,100688.25
2022-11-18T22:41:35.714Z,100693.78
2022-11-18T22:44:07.435Z,100690.03
2022-11-18T22:46:36.133Z,100700.75
2022-11-18T22:49:02.719Z,100706.84
2022-11-18T22:51:29.174Z,100706.16
2022-11-18T22:54:16.000Z,100701.66
2022-11-18T22:56:42.326Z,100712.50
2022-11-18T22:59:10.595Z,100707.84
2022-11-18T23:01:37.069Z,100710.00
2022-11-18T23:04:03.661Z,100720.13
2022-11-18T23:06:30.272Z,100717.59
2022-11-18T23:08:56.709Z,100719.47
2022-11-18T23:11:41.369Z,100718.50
2022-11-18T23:14:10.012Z,100721.75
2022-11-18T23:16:39.446Z,100720.50
2022-11-18T23:19:11.961Z,100729.00
2022-11-18T23:21:38.384Z,100723.84
2022-11-18T23:24:05.515Z,100721.13
2022-11-18T23:26:32.169Z,100729.78
2022-11-18T23:28:58.921Z,100721.13
2022-11-18T23:31:27.035Z,100722.28
2022-11-18T23:33:55.317Z,100723.88
2022-11-18T23:36:22.537Z,100726.59
2022-11-18T23:38:49.264Z,100729.47
2022-11-18T23:41:18.845Z,100718.63
2022-11-18T23:43:47.166Z,100726.59
2022-11-18T23:46:14.719Z,100729.13
2022-11-18T23:48:42.775Z,100726.50
2022-11-18T23:51:10.480Z,100725.66
2022-11-18T23:53:38.136Z,100724.13
2022-11-18T23:56:07.858Z,100726.28
2022-11-18T23:58:34.262Z,100724.50
